createdAt,value
2023-02-09T00:02:54.305Z,6.88
2023-02-09T00:07:56.356Z,5.88
2023-02-09T00:13:16.646Z,6.55
2023-02-09T00:18:18.520Z,6.95
2023-02-09T00:23:20.187Z,5.90
2023-02-09T00:28:21.976Z,6.20
2023-02-09T00:33:26.708Z,6.90
2023-02-09T00:38:28.468Z,7.78
2023-02-09T00:43:30.153Z,6.78
2023-02-09T00:48:32.161Z,6.25
2023-02-09T00:53:33.897Z,6.40
2023-02-09T00:58:35.539Z,6.60
2023-02-09T01:03:37.398Z,6.13
2023-02-09T01:08:39.000Z,6.32
2023-02-09T01:13:41.295Z,6.55
2023-02-09T01:18:43.700Z,6.15
2023-02-09T01:23:47.122Z,6.30
2023-02-09T01:28:53.472Z,6.15
2023-02-09T01:33:57.851Z,6.25
2023-02-09T01:39:03.702Z,6.57
2023-02-09T01:44:11.493Z,5.95
2023-02-09T01:49:21.145Z,6.00
2023-02-09T01:54:27.117Z,6.32
2023-02-09T01:59:29.795Z,6.20
2023-02-09T02:04:32.401Z,5.95
2023-02-09T02:09:34.304Z,5.72
2023-02-09T02:14:37.835Z,6.85
2023-02-09T02:19:58.093Z,6.53
2023-02-09T02:25:37.943Z,6.72
2023-02-09T02:31:17.515Z,7.15
2023-02-09T02:36:42.639Z,6.75
2023-02-09T02:42:17.050Z,6.35
2023-02-09T02:47:20.868Z,6.38
2023-02-09T02:52:22.830Z,6.47
2023-02-09T02:57:31.197Z,6.72
2023-02-09T03:02:48.148Z,6.82
2023-02-09T03:07:50.585Z,6.93
2023-02-09T03:13:07.877Z,7.00
2023-02-09T03:18:32.864Z,6.63
2023-02-09T03:24:11.122Z,6.65
2023-02-09T03:29:15.696Z,7.00
2023-02-09T03:34:18.317Z,6.57
2023-02-09T03:39:20.046Z,6.20
2023-02-09T03:44:27.748Z,6.65
2023-02-09T03:49:35.013Z,6.55
2023-02-09T03:54:37.185Z,7.18
2023-02-09T03:59:39.695Z,7.20
2023-02-09T04:09:43.304Z,6.70
2023-02-09T04:14:45.056Z,7.03
2023-02-09T04:19:46.806Z,6.53
2023-02-09T04:24:48.465Z,6.45
2023-02-09T04:29:50.228Z,6.65
2023-02-09T04:34:51.834Z,6.95
2023-02-09T04:39:53.694Z,6.30
2023-02-09T04:44:55.382Z,7.00
2023-02-09T04:49:57.135Z,6.43
2023-02-09T04:54:58.768Z,6.60
2023-02-09T05:00:00.429Z,6.53
2023-02-09T05:05:02.261Z,6.63
2023-02-09T05:10:04.172Z,6.93
2023-02-09T05:15:06.062Z,6.60
2023-02-09T05:20:08.763Z,6.95
2023-02-09T05:25:10.448Z,6.88
2023-02-09T05:30:12.464Z,7.20
2023-02-09T05:35:14.330Z,7.00
2023-02-09T05:40:16.151Z,7.20
2023-02-09T05:45:18.002Z,6.72
2023-02-09T05:50:19.848Z,7.53
2023-02-09T05:55:21.496Z,6.75
2023-02-09T06:00:24.979Z,7.10
2023-02-09T06:05:27.176Z,6.65
2023-02-09T06:10:29.120Z,6.55
2023-02-09T06:15:30.918Z,6.97
2023-02-09T06:20:32.685Z,6.53
2023-02-09T06:25:34.414Z,6.50
2023-02-09T06:30:36.198Z,6.45
2023-02-09T06:35:37.816Z,6.45
2023-02-09T06:40:39.576Z,6.60
2023-02-09T06:45:41.385Z,9.27
2023-02-09T06:50:43.166Z,6.78
2023-02-09T06:55:44.998Z,7.30
2023-02-09T07:00:46.947Z,8.02
2023-02-09T07:05:48.888Z,6.85
2023-02-09T07:10:50.572Z,7.40
2023-02-09T07:15:57.108Z,8.70
2023-02-09T07:21:01.735Z,8.32
2023-02-09T07:26:05.955Z,11.25
2023-02-09T07:31:10.307Z,8.07
2023-02-09T07:36:14.032Z,8.77
2023-02-09T07:41:19.398Z,7.60
2023-02-09T07:46:22.755Z,9.07
2023-02-09T07:51:28.715Z,9.05
2023-02-09T07:56:30.504Z,9.05
2023-02-09T08:01:33.754Z,10.13
2023-02-09T08:06:43.201Z,9.55
2023-02-09T08:11:53.169Z,8.75
2023-02-09T08:17:20.080Z,9.20
2023-02-09T08:22:24.838Z,11.15
2023-02-09T08:27:26.905Z,11.38
2023-02-09T08:32:28.770Z,11.98
2023-02-09T08:37:31.269Z,13.02
2023-02-09T08:42:33.178Z,12.90
2023-02-09T08:47:35.001Z,13.45
2023-02-09T08:52:36.672Z,14.48
2023-02-09T08:57:44.015Z,17.17
2023-02-09T09:02:46.349Z,18.25
2023-02-09T09:07:48.277Z,17.05
2023-02-09T09:12:51.822Z,16.58
2023-02-09T09:17:53.568Z,17.52
2023-02-09T09:22:59.326Z,17.53
2023-02-09T09:28:01.503Z,17.58
2023-02-09T09:33:04.221Z,17.33
2023-02-09T09:43:19.174Z,18.60
2023-02-09T09:48:26.831Z,18.27
2023-02-09T09:53:36.706Z,18.20
2023-02-09T09:58:44.183Z,19.83
2023-02-09T10:03:45.848Z,21.63
2023-02-09T10:09:03.181Z,20.87
2023-02-09T10:14:04.833Z,21.63
2023-02-09T10:19:17.232Z,22.27
2023-02-09T10:24:30.712Z,22.38
2023-02-09T10:29:32.427Z,22.30
2023-02-09T10:34:46.461Z,22.90
2023-02-09T10:40:00.975Z,22.90
2023-02-09T10:45:23.622Z,21.75
2023-02-09T10:50:25.368Z,22.95
2023-02-09T10:55:40.386Z,24.45
2023-02-09T11:00:41.950Z,22.67
2023-02-09T11:05:45.711Z,25.60
2023-02-09T11:11:08.117Z,26.10
2023-02-09T11:16:28.438Z,26.20
2023-02-09T11:21:40.905Z,26.13
2023-02-09T11:26:50.796Z,28.95
2023-02-09T11:32:20.634Z,28.65
2023-02-09T11:37:28.277Z,29.35
2023-02-09T11:42:44.607Z,28.13
2023-02-09T11:48:13.832Z,25.92
2023-02-09T11:53:33.642Z,24.05
2023-02-09T11:58:44.490Z,24.23
2023-02-09T12:04:18.609Z,24.20
2023-02-09T12:09:36.626Z,24.10
2023-02-09T12:14:49.017Z,24.50
2023-02-09T12:20:01.401Z,24.45
2023-02-09T12:25:12.183Z,25.63
2023-02-09T12:30:44.967Z,26.08
2023-02-09T12:41:29.390Z,26.02
2023-02-09T12:46:31.196Z,25.70
2023-02-09T12:51:42.043Z,26.58
2023-02-09T12:56:43.762Z,27.08
2023-02-09T13:02:04.161Z,27.10
2023-02-09T13:07:15.041Z,27.52
2023-02-09T13:12:22.249Z,28.00
2023-02-09T13:17:35.074Z,27.55
2023-02-09T13:23:32.040Z,26.05
2023-02-09T13:28:33.690Z,27.08
2023-02-09T13:33:47.453Z,26.05
2023-02-09T13:38:49.374Z,26.25
2023-02-09T13:43:51.033Z,25.50
2023-02-09T13:48:52.933Z,27.52
2023-02-09T13:54:00.963Z,25.90
2023-02-09T13:59:02.713Z,26.85
2023-02-09T14:04:11.923Z,26.65
2023-02-09T14:09:20.778Z,25.00
2023-02-09T14:14:28.382Z,27.55
2023-02-09T14:19:33.434Z,27.42
2023-02-09T14:24:43.835Z,28.08
2023-02-09T14:29:48.705Z,26.38
2023-02-09T14:34:51.344Z,27.58
2023-02-09T14:40:06.275Z,28.15
2023-02-09T14:45:14.036Z,28.38
2023-02-09T14:50:18.856Z,29.40
2023-02-09T14:55:25.070Z,28.42
2023-02-09T15:00:28.994Z,28.67
2023-02-09T15:05:30.861Z,29.70
2023-02-09T15:10:38.329Z,31.55
2023-02-09T15:15:40.381Z,30.63
2023-02-09T15:20:41.987Z,30.00
2023-02-09T15:25:44.964Z,29.20
2023-02-09T15:30:47.190Z,30.02
2023-02-09T15:35:50.049Z,31.13
2023-02-09T15:46:13.422Z,31.58
2023-02-09T15:51:16.195Z,32.65
2023-02-09T16:01:20.900Z,33.40
2023-02-09T16:06:26.710Z,33.22
2023-02-09T16:11:35.206Z,35.10
2023-02-09T16:16:36.889Z,35.40
2023-02-09T16:21:40.602Z,34.67
2023-02-09T16:26:42.259Z,33.95
2023-02-09T16:31:44.297Z,33.25
2023-02-09T16:36:48.513Z,33.40
2023-02-09T16:41:50.754Z,33.25
2023-02-09T16:46:56.362Z,33.70
2023-02-09T16:52:02.444Z,33.85
2023-02-09T16:57:04.452Z,33.83
2023-02-09T17:02:40.692Z,37.40
2023-02-09T17:07:53.883Z,37.35
2023-02-09T17:12:57.758Z,37.45
2023-02-09T17:18:04.040Z,39.08
2023-02-09T17:23:05.766Z,37.10
2023-02-09T17:28:07.480Z,42.73
2023-02-09T17:33:16.047Z,36.97
2023-02-09T17:38:21.041Z,34.13
2023-02-09T17:43:23.836Z,37.25
2023-02-09T17:48:25.909Z,36.75
2023-02-09T17:53:32.214Z,34.83
2023-02-09T17:58:34.105Z,35.13
2023-02-09T18:03:35.711Z,33.70
2023-02-09T18:08:37.349Z,34.47
2023-02-09T18:13:39.589Z,33.87
2023-02-09T18:18:42.976Z,33.92
2023-02-09T18:23:44.906Z,32.38
2023-02-09T18:28:46.565Z,35.00
2023-02-09T18:33:48.542Z,32.97
2023-02-09T18:38:52.091Z,34.13
2023-02-09T18:43:54.501Z,35.10
2023-02-09T18:48:56.477Z,33.55
2023-02-09T18:53:58.893Z,32.40
2023-02-09T18:59:00.623Z,31.98
2023-02-09T19:04:02.646Z,31.60
2023-02-09T19:09:04.586Z,32.10
2023-02-09T19:14:24.547Z,33.67
2023-02-09T19:19:26.362Z,31.08
2023-02-09T19:24:28.252Z,34.72
2023-02-09T19:29:30.084Z,36.90
2023-02-09T19:34:35.121Z,36.88
2023-02-09T19:39:38.658Z,40.72
2023-02-09T19:44:40.306Z,40.05
2023-02-09T19:49:42.002Z,36.90
2023-02-09T19:54:43.673Z,36.42
2023-02-09T19:59:45.320Z,35.67
2023-02-09T20:04:47.094Z,33.97
2023-02-09T20:09:50.331Z,33.17
2023-02-09T20:14:53.967Z,32.42
2023-02-09T20:19:55.824Z,33.55
2023-02-09T20:24:57.654Z,33.30
2023-02-09T20:30:01.371Z,33.33
2023-02-09T20:35:04.923Z,36.17
2023-02-09T20:40:11.034Z,32.58
2023-02-09T20:45:35.826Z,34.65
2023-02-09T20:50:37.574Z,35.17
2023-02-09T20:55:39.336Z,35.53
2023-02-09T21:00:42.413Z,36.72
2023-02-09T21:05:44.187Z,33.17
2023-02-09T21:10:46.010Z,34.10
2023-02-09T21:15:48.696Z,34.42
2023-02-09T21:20:51.593Z,33.38
2023-02-09T21:26:04.725Z,33.97
2023-02-09T21:31:11.382Z,33.45
2023-02-09T21:36:13.751Z,33.63
2023-02-09T21:46:43.765Z,33.75
2023-02-09T21:51:45.570Z,33.78
2023-02-09T21:56:47.277Z,35.70
2023-02-09T22:01:48.983Z,35.65
2023-02-09T22:06:50.726Z,34.10
2023-02-09T22:11:52.389Z,32.97
2023-02-09T22:16:54.658Z,34.58
2023-02-09T22:26:59.881Z,34.70
2023-02-09T22:32:01.739Z,31.08
2023-02-09T22:37:04.228Z,32.45
2023-02-09T22:42:05.982Z,33.38
2023-02-09T22:47:07.891Z,32.90
2023-02-09T22:52:09.604Z,32.97
2023-02-09T22:57:11.473Z,34.55
2023-02-09T23:02:13.226Z,38.17
2023-02-09T23:07:14.891Z,30.88
2023-02-09T23:12:16.511Z,31.73
2023-02-09T23:17:18.160Z,34.63
2023-02-09T23:22:19.959Z,34.22
2023-02-09T23:27:22.091Z,36.47
2023-02-09T23:32:23.699Z,35.13
2023-02-09T23:37:37.325Z,38.25
2023-02-09T23:42:39.605Z,34.70
2023-02-09T23:47:41.325Z,36.05
2023-02-09T23:52:43.029Z,36.45
2023-02-09T23:57:44.890Z,36.65
